ADDS METAR Data INFO
IDs: Format: Raw Decoded Include TAF

Data at: 2111 UTC 22 Oct 2017

KPCM 222055Z AUTO 10006KT 10SM CLR 31/22 A3007 RMK AO2
KPCM 222035Z AUTO 10006KT 10SM CLR 31/22 A3007 RMK AO2
KPCM 222015Z AUTO 11010G14KT 10SM SCT045 SCT050 31/21 A3007 RMK AO2
KPCM 221955Z AUTO 10008KT 10SM SCT045 BKN050 32/21 A3007 RMK AO2
KPCM 221935Z AUTO 13005G08KT 10SM CLR 32/21 A3007 RMK AO2
KPCM 221915Z AUTO 11009KT 075V145 10SM SCT055 SCT085 32/22 A3008 RMK AO2
KPCM 221855Z AUTO 12011G14KT 10SM SCT042 SCT055 31/21 A3008 RMK AO2
KPCM 221835Z AUTO 10008KT 10SM SCT041 32/21 A3009 RMK AO2
KPCM 221815Z AUTO 10010G15KT 7SM SCT041 BKN048 31/21 A3009 RMK AO2
KPCM 221755Z AUTO 13007G14KT 7SM SCT041 SCT048 32/21 A3010 RMK AO2
KPCM 221735Z AUTO 10012G17KT 10SM BKN041 BKN046 BKN050 32/21 A3011 RMK AO2
KPCM 221715Z AUTO 13009KT 10SM BKN041 BKN048 32/21 A3012 RMK AO2
KPCM 221655Z AUTO 11008G15KT 7SM SCT039 SCT048 31/21 A3013 RMK AO2
KPCM 221635Z AUTO 13011G15KT 7SM SCT032 SCT041 32/22 A3014 RMK AO2
KPCM 221615Z AUTO 14008KT 7SM SCT025 BKN032 BKN044 31/22 A3014 RMK AO2
KPCM 221555Z AUTO 10009KT 7SM SCT026 BKN030 BKN035 30/23 A3015 RMK AO2
KPCM 221535Z AUTO 11010G15KT 7SM SCT022 SCT029 BKN038 30/23 A3015 RMK AO2
KPCM 221515Z AUTO 12010G16KT 7SM BKN022 BKN029 BKN035 30/23 A3016 RMK AO2
KPCM 221455Z AUTO 11008G14KT 7SM BKN020 OVC027 29/24 A3015 RMK AO2
KPCM 221435Z AUTO 10009G15KT 7SM OVC020 29/24 A3016 RMK AO2
KPCM 221415Z AUTO 10007KT 10SM SCT018 BKN024 BKN034 28/24 A3015 RMK AO2
KPCM 221355Z AUTO 10007KT 10SM SCT018 BKN024 BKN031 28/24 A3015 RMK AO2
KPCM 221335Z AUTO 08005KT 10SM CLR 27/24 A3015 RMK AO2
KPCM 221315Z AUTO 08006KT 10SM CLR 27/23 A3014 RMK AO2
KPCM 221255Z AUTO 07006KT 10SM CLR 26/23 A3014 RMK AO2
KPCM 221235Z AUTO 07004KT 10SM CLR 25/23 A3014 RMK AO2
KPCM 221215Z AUTO 07003KT 10SM CLR 24/22 A3013 RMK AO2
KPCM 221155Z AUTO 07004KT 10SM CLR 24/22 A3012 RMK AO2
KPCM 221135Z AUTO 08004KT 10SM CLR 24/22 A3012 RMK AO2
KPCM 221115Z AUTO 06004KT 10SM CLR 24/22 A3011 RMK AO2
KPCM 220815Z AUTO 04005KT 10SM SCT029 23/22 A3009 RMK AO2
KPCM 220755Z AUTO 04004KT 10SM CLR 23/22 A3010 RMK AO2
KPCM 220735Z AUTO 05005KT 10SM CLR 24/22 A3010 RMK AO2
KPCM 220715Z AUTO 04003KT 10SM CLR 24/22 A3011 RMK AO2
KPCM 220655Z AUTO 04005KT 10SM CLR 24/22 A3011 RMK AO2
KPCM 220635Z AUTO 05005KT 10SM CLR 24/22 A3012 RMK AO2
KPCM 220615Z AUTO 05005KT 10SM CLR 24/21 A3012 RMK AO2
KPCM 220555Z AUTO 06005KT 10SM CLR 24/21 A3012 RMK AO2
KPCM 220535Z AUTO 07005KT 10SM CLR 24/21 A3012 RMK AO2
KPCM 220515Z AUTO 07005KT 10SM CLR 24/21 A3013 RMK AO2
KPCM 220455Z AUTO 07005KT 10SM CLR 24/21 A3014 RMK AO2
KPCM 220435Z AUTO 06006KT 10SM CLR 24/21 A3014 RMK AO2
KPCM 220415Z AUTO 05006KT 10SM CLR 24/21 A3015 RMK AO2
KPCM 220355Z AUTO 06005KT 10SM CLR 24/21 A3017 RMK AO2
KPCM 220335Z AUTO 05005KT 10SM CLR 24/21 A3017 RMK AO2
KPCM 220315Z AUTO 04004KT 10SM CLR 24/21 A3018 RMK AO2
KPCM 220255Z AUTO 05006KT 10SM CLR 24/21 A3017 RMK AO2
KPCM 220235Z AUTO 06007KT 10SM CLR 24/21 A3016 RMK AO2
KPCM 220215Z AUTO 06004KT 10SM CLR 24/21 A3017 RMK AO2
KPCM 220155Z AUTO 07005KT 10SM CLR 24/21 A3015 RMK AO2
KPCM 220135Z AUTO 06006KT 10SM CLR 25/21 A3015 RMK AO2
KPCM 220115Z AUTO 06005KT 10SM CLR 25/20 A3015 RMK AO2
KPCM 220055Z AUTO 07005KT 10SM CLR 25/20 A3015 RMK AO2
KPCM 220035Z AUTO 07005KT 10SM CLR 25/20 A3015 RMK AO2
KPCM 220015Z AUTO 06006KT 10SM CLR 26/20 A3014 RMK AO2
KPCM 212355Z AUTO 06006KT 10SM CLR 26/19 A3014 RMK AO2
KPCM 212335Z AUTO 07006KT 10SM CLR 26/19 A3014 RMK AO2
KPCM 212315Z AUTO 08008G14KT 10SM CLR 26/19 A3014 RMK AO2
KPCM 212255Z AUTO 07006KT 10SM SCT070 27/20 A3013 RMK AO2
KPCM 212235Z AUTO 08008KT 10SM BKN070 28/19 A3013 RMK AO2
KPCM 212215Z AUTO 07009KT 10SM SCT060 BKN070 28/20 A3012 RMK AO2
KPCM 212155Z AUTO 08006KT 10SM SCT060 OVC070 28/19 A3012 RMK AO2
KPCM 212135Z AUTO 09007KT 10SM OVC065 28/19 A3012 RMK AO2
KPCM 212115Z AUTO 08008KT 10SM OVC055 29/19 A3012 RMK AO2
KPCM 212055Z AUTO 09006KT 10SM OVC055 29/19 A3012 RMK AO2
KPCM 212035Z AUTO 09009G16KT 10SM BKN055 29/19 A3011 RMK AO2
KPCM 212015Z AUTO 07010G17KT 10SM SCT041 30/19 A3011 RMK AO2
KPCM 211955Z AUTO 09009G16KT 10SM CLR 30/19 A3011 RMK AO2
KPCM 211935Z AUTO 08010G17KT 10SM SCT042 SCT050 30/20 A3011 RMK AO2
KPCM 211915Z AUTO 07012G16KT 10SM BKN044 BKN050 30/19 A3011 RMK AO2
KPCM 211855Z AUTO 07011G16KT 10SM SCT044 SCT049 BKN060 30/19 A3011 RMK AO2
KPCM 211835Z AUTO 07010G15KT 10SM OVC044 30/19 A3011 RMK AO2
KPCM 211815Z AUTO 08011G16KT 10SM BKN044 31/19 A3012 RMK AO2
KPCM 211755Z AUTO 09007G15KT 10SM SCT044 31/19 A3013 RMK AO2
KPCM 211735Z AUTO 07010G16KT 10SM CLR 30/18 A3014 RMK AO2
KPCM 211715Z AUTO 07006KT 10SM SCT045 30/18 A3014 RMK AO2
KPCM 211655Z AUTO 06010G17KT 10SM SCT045 30/17 A3015 RMK AO2
KPCM 211635Z AUTO 10013G16KT 10SM CLR 30/16 A3016 RMK AO2
KPCM 211615Z AUTO 08008G16KT 10SM CLR 30/17 A3016 RMK AO2
KPCM 211555Z AUTO 07012G19KT 10SM CLR 30/18 A3017 RMK AO2
KPCM 211535Z AUTO 09012G18KT 10SM CLR 29/17 A3017 RMK AO2
KPCM 211515Z AUTO 07011G17KT 10SM CLR 29/18 A3017 RMK AO2
KPCM 211455Z AUTO 07012G18KT 10SM CLR 28/18 A3017 RMK AO2
KPCM 211435Z AUTO 08010G17KT 10SM CLR 28/19 A3016 RMK AO2
KPCM 211415Z AUTO 07009KT 045V105 10SM CLR 28/20 A3016 RMK AO2
KPCM 211355Z AUTO 07008KT 10SM CLR 27/20 A3016 RMK AO2
KPCM 211335Z AUTO 07008KT 10SM CLR 26/20 A3016 RMK AO2
KPCM 211315Z AUTO 06009KT 10SM CLR 25/21 A3015 RMK AO2
KPCM 211255Z AUTO 06007KT 10SM CLR 24/21 A3014 RMK AO2
KPCM 211235Z AUTO 06006KT 10SM CLR 23/20 A3014 RMK AO2
KPCM 211215Z AUTO 04004KT 10SM CLR 22/20 A3013 RMK AO2
KPCM 211155Z AUTO 06004KT 10SM CLR 22/20 A3012 RMK AO2
KPCM 211135Z AUTO 06006KT 10SM CLR 22/20 A3012 RMK AO2
KPCM 211115Z AUTO 05004KT 10SM CLR 22/20 A3011 RMK AO2
KPCM 211055Z AUTO 05004KT 10SM CLR 22/20 A3011 RMK AO2
KPCM 211035Z AUTO 04005KT 10SM CLR 22/21 A3011 RMK AO2
KPCM 211015Z AUTO 04005KT 10SM CLR 22/20 A3010 RMK AO2
KPCM 210955Z AUTO 05005KT 10SM CLR 22/21 A3009 RMK AO2
KPCM 210935Z AUTO 05004KT 10SM CLR 22/21 A3009 RMK AO2
KPCM 210915Z AUTO 05005KT 10SM CLR 22/21 A3009 RMK AO2